sensor_id;sensor_type;location;lat;lon;timestamp;pressure;altitude;pressure_sealevel;temperature;humidity
9091;BME280;4581;42.416;25.598;2024-02-21T00:00:19;99089.38;;;6.72;99.07
9091;BME280;4581;42.416;25.598;2024-02-21T00:02:46;99085.84;;;6.72;99.26
9091;BME280;4581;42.416;25.598;2024-02-21T00:05:12;99089.25;;;6.74;98.99
9091;BME280;4581;42.416;25.598;2024-02-21T00:07:39;99080.59;;;6.61;99.33
9091;BME280;4581;42.416;25.598;2024-02-21T00:10:07;99088.63;;;6.61;98.94
9091;BME280;4581;42.416;25.598;2024-02-21T00:12:34;99087.75;;;6.50;99.68
9091;BME280;4581;42.416;25.598;2024-02-21T00:15:01;99086.88;;;6.40;100.00
9091;BME280;4581;42.416;25.598;2024-02-21T00:17:27;99088.25;;;6.35;100.00
9091;BME280;4581;42.416;25.598;2024-02-21T00:19:54;99082.50;;;6.39;100.00
9091;BME280;4581;42.416;25.598;2024-02-21T00:22:21;99089.84;;;6.37;100.00
9091;BME280;4581;42.416;25.598;2024-02-21T00:24:48;99087.22;;;6.26;100.00
9091;BME280;4581;42.416;25.598;2024-02-21T00:27:14;99078.19;;;6.18;100.00
9091;BME280;4581;42.416;25.598;2024-02-21T00:29:41;99081.56;;;6.20;100.00
9091;BME280;4581;42.416;25.598;2024-02-21T00:32:07;99087.22;;;6.26;100.00
9091;BME280;4581;42.416;25.598;2024-02-21T00:34:34;99081.97;;;6.15;100.00
9091;BME280;4581;42.416;25.598;2024-02-21T00:37:02;99084.53;;;6.17;100.00
9091;BME280;4581;42.416;25.598;2024-02-21T00:39:28;99081.53;;;6.10;100.00
9091;BME280;4581;42.416;25.598;2024-02-21T00:41:55;99082.81;;;6.16;100.00
9091;BME280;4581;42.416;25.598;2024-02-21T00:44:22;99080.59;;;6.21;100.00
9091;BME280;4581;42.416;25.598;2024-02-21T00:46:48;99079.75;;;6.20;100.00
9091;BME280;4581;42.416;25.598;2024-02-21T00:49:15;99084.13;;;6.21;100.00
9091;BME280;4581;42.416;25.598;2024-02-21T00:51:42;99084.81;;;6.23;100.00
9091;BME280;4581;42.416;25.598;2024-02-21T00:54:09;99077.78;;;6.22;100.00
9091;BME280;4581;42.416;25.598;2024-02-21T00:56:35;99079.44;;;6.14;100.00
9091;BME280;4581;42.416;25.598;2024-02-21T00:59:02;99063.69;;;6.20;100.00
9091;BME280;4581;42.416;25.598;2024-02-21T01:01:29;99057.47;;;6.20;100.00
9091;BME280;4581;42.416;25.598;2024-02-21T01:03:56;99061.13;;;6.19;100.00
9091;BME280;4581;42.416;25.598;2024-02-21T01:06:22;99064.66;;;6.19;100.00
9091;BME280;4581;42.416;25.598;2024-02-21T01:08:50;99069.75;;;6.22;100.00
9091;BME280;4581;42.416;25.598;2024-02-21T01:11:17;99079.19;;;6.26;100.00
9091;BME280;4581;42.416;25.598;2024-02-21T01:13:44;99074.13;;;6.23;100.00
9091;BME280;4581;42.416;25.598;2024-02-21T01:16:10;99069.63;;;6.24;100.00
9091;BME280;4581;42.416;25.598;2024-02-21T01:18:37;99070.19;;;6.27;100.00
9091;BME280;4581;42.416;25.598;2024-02-21T01:21:07;99061.72;;;6.22;100.00
9091;BME280;4581;42.416;25.598;2024-02-21T01:23:34;99067.06;;;6.22;100.00
9091;BME280;4581;42.416;25.598;2024-02-21T01:26:02;99061.81;;;6.11;100.00
9091;BME280;4581;42.416;25.598;2024-02-21T01:28:29;99065.34;;;6.11;100.00
9091;BME280;4581;42.416;25.598;2024-02-21T01:30:57;99072.16;;;6.25;100.00
9091;BME280;4581;42.416;25.598;2024-02-21T01:33:24;99060.88;;;6.22;100.00
9091;BME280;4581;42.416;25.598;2024-02-21T01:35:50;99064.25;;;6.24;100.00
9091;BME280;4581;42.416;25.598;2024-02-21T01:38:17;99061.31;;;6.27;100.00
9091;BME280;4581;42.416;25.598;2024-02-21T01:40:44;99058.94;;;6.33;100.00
9091;BME280;4581;42.416;25.598;2024-02-21T01:43:19;99048.81;;;6.37;100.00
9091;BME280;4581;42.416;25.598;2024-02-21T01:45:52;99053.31;;;6.36;100.00
9091;BME280;4581;42.416;25.598;2024-02-21T01:48:20;99051.91;;;6.32;100.00
9091;BME280;4581;42.416;25.598;2024-02-21T01:50:52;99052.19;;;6.29;100.00
9091;BME280;4581;42.416;25.598;2024-02-21T01:53:22;99050.59;;;6.27;100.00
9091;BME280;4581;42.416;25.598;2024-02-21T01:55:49;99050.75;;;6.25;100.00
9091;BME280;4581;42.416;25.598;2024-02-21T01:58:17;99044.81;;;6.22;100.00
9091;BME280;4581;42.416;25.598;2024-02-21T02:00:46;99040.84;;;6.16;100.00
9091;BME280;4581;42.416;25.598;2024-02-21T02:03:14;99045.66;;;6.22;100.00
9091;BME280;4581;42.416;25.598;2024-02-21T02:08:14;99045.53;;;6.24;100.00
9091;BME280;4581;42.416;25.598;2024-02-21T02:10:41;99046.25;;;6.26;100.00
9091;BME280;4581;42.416;25.598;2024-02-21T02:13:09;99046.19;;;6.16;100.00
9091;BME280;4581;42.416;25.598;2024-02-21T02:15:47;99050.13;;;6.12;100.00
9091;BME280;4581;42.416;25.598;2024-02-21T02:18:15;99043.44;;;5.97;100.00
9091;BME280;4581;42.416;25.598;2024-02-21T02:20:46;99047.38;;;5.93;100.00
9091;BME280;4581;42.416;25.598;2024-02-21T02:23:32;99050.44;;;5.88;100.00
9091;BME280;4581;42.416;25.598;2024-02-21T02:26:00;99040.72;;;5.87;100.00
9091;BME280;4581;42.416;25.598;2024-02-21T02:28:29;99046.16;;;5.86;100.00
9091;BME280;4581;42.416;25.598;2024-02-21T02:30:56;99042.28;;;5.90;100.00
9091;BME280;4581;42.416;25.598;2024-02-21T02:33:23;99053.38;;;5.85;100.00
9091;BME280;4581;42.416;25.598;2024-02-21T02:35:50;99048.97;;;5.84;100.00
9091;BME280;4581;42.416;25.598;2024-02-21T02:38:17;99054.34;;;5.84;100.00
9091;BME280;4581;42.416;25.598;2024-02-21T02:40:43;99055.66;;;5.90;100.00
9091;BME280;4581;42.416;25.598;2024-02-21T02:43:10;99054.47;;;5.83;100.00
9091;BME280;4581;42.416;25.598;2024-02-21T02:45:37;99048.22;;;5.73;100.00
9091;BME280;4581;42.416;25.598;2024-02-21T02:48:04;99046.00;;;5.78;100.00
9091;BME280;4581;42.416;25.598;2024-02-21T02:50:31;99057.22;;;5.72;100.00
9091;BME280;4581;42.416;25.598;2024-02-21T02:52:58;99056.75;;;5.66;100.00
9091;BME280;4581;42.416;25.598;2024-02-21T02:55:24;99053.38;;;5.64;100.00
9091;BME280;4581;42.416;25.598;2024-02-21T02:57:53;99061.13;;;5.68;100.00
9091;BME280;4581;42.416;25.598;2024-02-21T03:00:20;99055.50;;;5.71;100.00
9091;BME280;4581;42.416;25.598;2024-02-21T03:02:48;99059.63;;;5.75;100.00
9091;BME280;4581;42.416;25.598;2024-02-21T03:05:18;99053.31;;;5.76;100.00
9091;BME280;4581;42.416;25.598;2024-02-21T03:07:46;99054.03;;;5.78;100.00
9091;BME280;4581;42.416;25.598;2024-02-21T03:10:14;99058.84;;;5.84;100.00
9091;BME280;4581;42.416;25.598;2024-02-21T03:12:44;99057.69;;;5.77;100.00
9091;BME280;4581;42.416;25.598;2024-02-21T03:15:11;99061.59;;;5.73;100.00
9091;BME280;4581;42.416;25.598;2024-02-21T03:17:38;99051.59;;;5.75;100.00
9091;BME280;4581;42.416;25.598;2024-02-21T03:20:06;99055.84;;;5.77;100.00
9091;BME280;4581;42.416;25.598;2024-02-21T03:22:39;99059.38;;;5.78;100.00
9091;BME280;4581;42.416;25.598;2024-02-21T03:25:06;99054.47;;;5.83;100.00
9091;BME280;4581;42.416;25.598;2024-02-21T03:27:33;99053.59;;;5.82;100.00
9091;BME280;4581;42.416;25.598;2024-02-21T03:30:00;99054.09;;;5.87;100.00
9091;BME280;4581;42.416;25.598;2024-02-21T03:32:27;99059.81;;;5.83;100.00
9091;BME280;4581;42.416;25.598;2024-02-21T03:34:55;99057.63;;;5.88;100.00
9091;BME280;4581;42.416;25.598;2024-02-21T03:37:22;99052.38;;;5.86;100.00
9091;BME280;4581;42.416;25.598;2024-02-21T03:39:49;99056.94;;;5.95;100.00
9091;BME280;4581;42.416;25.598;2024-02-21T03:42:16;99049.47;;;5.89;100.00
9091;BME280;4581;42.416;25.598;2024-02-21T03:44:42;99045.41;;;5.95;100.00
9091;BME280;4581;42.416;25.598;2024-02-21T03:47:09;99036.00;;;5.80;100.00
9091;BME280;4581;42.416;25.598;2024-02-21T03:49:38;99045.00;;;5.79;100.00
9091;BME280;4581;42.416;25.598;2024-02-21T03:52:05;99049.66;;;5.77;100.00
9091;BME280;4581;42.416;25.598;2024-02-21T03:54:32;99040.31;;;5.71;100.00
9091;BME280;4581;42.416;25.598;2024-02-21T03:56:58;99038.22;;;5.75;100.00
9091;BME280;4581;42.416;25.598;2024-02-21T03:59:25;99038.38;;;5.73;100.00
9091;BME280;4581;42.416;25.598;2024-02-21T04:01:52;99036.78;;;5.71;100.00
9091;BME280;4581;42.416;25.598;2024-02-21T04:04:20;99043.38;;;5.66;100.00
9091;BME280;4581;42.416;25.598;2024-02-21T04:06:48;99050.44;;;5.68;100.00
9091;BME280;4581;42.416;25.598;2024-02-21T04:09:15;99048.53;;;5.58;100.00
9091;BME280;4581;42.416;25.598;2024-02-21T04:11:42;99040.78;;;5.55;100.00
9091;BME280;4581;42.416;25.598;2024-02-21T04:14:09;99046.13;;;5.55;100.00
9091;BME280;4581;42.416;25.598;2024-02-21T04:16:38;99055.88;;;5.56;100.00
9091;BME280;4581;42.416;25.598;2024-02-21T04:19:06;99040.78;;;5.55;100.00
9091;BME280;4581;42.416;25.598;2024-02-21T04:21:33;99043.00;;;5.50;100.00
9091;BME280;4581;42.416;25.598;2024-02-21T04:24:00;99035.56;;;5.54;100.00
9091;BME280;4581;42.416;25.598;2024-02-21T04:26:28;99047.69;;;5.58;100.00
9091;BME280;4581;42.416;25.598;2024-02-21T04:28:55;99051.22;;;5.58;100.00
9091;BME280;4581;42.416;25.598;2024-02-21T04:31:22;99056.63;;;5.68;100.00
9091;BME280;4581;42.416;25.598;2024-02-21T04:33:49;99049.59;;;5.67;100.00
9091;BME280;4581;42.416;25.598;2024-02-21T04:36:15;99059.69;;;5.63;100.00
9091;BME280;4581;42.416;25.598;2024-02-21T04:38:42;99065.91;;;5.64;100.00
9091;BME280;4581;42.416;25.598;2024-02-21T04:41:09;99054.66;;;5.70;100.00
9091;BME280;4581;42.416;25.598;2024-02-21T04:43:36;99062.75;;;5.80;100.00
9091;BME280;4581;42.416;25.598;2024-02-21T04:46:02;99055.59;;;5.80;100.00
9091;BME280;4581;42.416;25.598;2024-02-21T04:48:29;99050.75;;;5.74;100.00
9091;BME280;4581;42.416;25.598;2024-02-21T04:50:56;99054.72;;;5.80;100.00
9091;BME280;4581;42.416;25.598;2024-02-21T04:53:22;99054.84;;;5.78;100.00
9091;BME280;4581;42.416;25.598;2024-02-21T04:55:49;99055.50;;;5.71;100.00
9091;BME280;4581;42.416;25.598;2024-02-21T04:58:16;99057.88;;;5.64;100.00
9091;BME280;4581;42.416;25.598;2024-02-21T05:00:43;99056.34;;;5.61;100.00
9091;BME280;4581;42.416;25.598;2024-02-21T05:03:09;99064.53;;;5.70;100.00
9091;BME280;4581;42.416;25.598;2024-02-21T05:05:37;99069.03;;;5.69;100.00
9091;BME280;4581;42.416;25.598;2024-02-21T05:08:04;99068.78;;;5.72;100.00
9091;BME280;4581;42.416;25.598;2024-02-21T05:10:31;99072.16;;;5.74;100.00
9091;BME280;4581;42.416;25.598;2024-02-21T05:12:58;99067.84;;;5.83;100.00
9091;BME280;4581;42.416;25.598;2024-02-21T05:15:25;99080.34;;;5.82;100.00
9091;BME280;4581;42.416;25.598;2024-02-21T05:17:52;99085.88;;;5.81;100.00
9091;BME280;4581;42.416;25.598;2024-02-21T05:20:19;99082.59;;;5.77;100.00
9091;BME280;4581;42.416;25.598;2024-02-21T05:22:46;99083.28;;;5.70;100.00
9091;BME280;4581;42.416;25.598;2024-02-21T05:25:13;99085.78;;;5.71;100.00
9091;BME280;4581;42.416;25.598;2024-02-21T05:27:39;99087.38;;;5.74;100.00
9091;BME280;4581;42.416;25.598;2024-02-21T05:30:06;99079.28;;;5.85;100.00
9091;BME280;4581;42.416;25.598;2024-02-21T05:32:33;99090.09;;;5.83;100.00
9091;BME280;4581;42.416;25.598;2024-02-21T05:35:00;99092.19;;;5.80;100.00
9091;BME280;4581;42.416;25.598;2024-02-21T05:37:27;99086.13;;;5.78;100.00
9091;BME280;4581;42.416;25.598;2024-02-21T05:39:54;99089.59;;;5.89;100.00
9091;BME280;4581;42.416;25.598;2024-02-21T05:42:20;99084.38;;;5.88;100.00
9091;BME280;4581;42.416;25.598;2024-02-21T05:44:47;99083.75;;;5.84;100.00
9091;BME280;4581;42.416;25.598;2024-02-21T05:47:14;99092.72;;;5.94;100.00
9091;BME280;4581;42.416;25.598;2024-02-21T05:49:42;99089.06;;;5.95;100.00
9091;BME280;4581;42.416;25.598;2024-02-21T05:52:09;99090.50;;;5.99;100.00
9091;BME280;4581;42.416;25.598;2024-02-21T05:54:38;99098.72;;;6.07;100.00
9091;BME280;4581;42.416;25.598;2024-02-21T05:57:07;99098.63;;;6.19;100.00
9091;BME280;4581;42.416;25.598;2024-02-21T05:59:34;99102.59;;;6.24;100.00
9091;BME280;4581;42.416;25.598;2024-02-21T06:02:03;99106.16;;;6.34;100.00
9091;BME280;4581;42.416;25.598;2024-02-21T06:04:30;99105.75;;;6.39;100.00
9091;BME280;4581;42.416;25.598;2024-02-21T06:06:57;99113.81;;;6.48;100.00
9091;BME280;4581;42.416;25.598;2024-02-21T06:09:24;99117.66;;;6.55;100.00
9091;BME280;4581;42.416;25.598;2024-02-21T06:11:51;99123.91;;;6.66;100.00
9091;BME280;4581;42.416;25.598;2024-02-21T06:14:19;99116.56;;;6.68;100.00
9091;BME280;4581;42.416;25.598;2024-02-21T06:16:45;99118.56;;;6.75;99.83
9091;BME280;4581;42.416;25.598;2024-02-21T06:19:12;99122.53;;;6.81;99.44
9091;BME280;4581;42.416;25.598;2024-02-21T06:21:38;99127.19;;;6.88;99.23
9091;BME280;4581;42.416;25.598;2024-02-21T06:24:05;99135.00;;;7.01;98.32
9091;BME280;4581;42.416;25.598;2024-02-21T06:26:32;99145.16;;;7.07;97.16
9091;BME280;4581;42.416;25.598;2024-02-21T06:28:59;99132.47;;;7.09;97.96
9091;BME280;4581;42.416;25.598;2024-02-21T06:31:27;99139.53;;;7.20;98.18
9091;BME280;4581;42.416;25.598;2024-02-21T06:33:54;99138.81;;;7.27;98.31
9091;BME280;4581;42.416;25.598;2024-02-21T06:36:21;99143.94;;;7.49;97.04
9091;BME280;4581;42.416;25.598;2024-02-21T06:38:48;99134.03;;;7.60;95.63
9091;BME280;4581;42.416;25.598;2024-02-21T06:41:16;99134.34;;;7.66;96.24
9091;BME280;4581;42.416;25.598;2024-02-21T06:43:43;99143.34;;;7.84;95.33
9091;BME280;4581;42.416;25.598;2024-02-21T06:46:10;99149.41;;;7.96;93.84
9091;BME280;4581;42.416;25.598;2024-02-21T06:48:36;99136.56;;;7.90;94.82
9091;BME280;4581;42.416;25.598;2024-02-21T06:51:04;99148.13;;;7.90;93.53
9091;BME280;4581;42.416;25.598;2024-02-21T06:53:30;99127.78;;;7.97;93.28
9091;BME280;4581;42.416;25.598;2024-02-21T06:55:57;99140.56;;;8.23;91.97
9091;BME280;4581;42.416;25.598;2024-02-21T06:58:24;99140.88;;;8.29;90.58
9091;BME280;4581;42.416;25.598;2024-02-21T07:00:51;99144.97;;;8.70;89.15
9091;BME280;4581;42.416;25.598;2024-02-21T07:03:18;99145.19;;;9.04;86.44
9091;BME280;4581;42.416;25.598;2024-02-21T07:05:45;99138.19;;;9.56;83.35
9091;BME280;4581;42.416;25.598;2024-02-21T07:08:12;99139.69;;;9.76;81.12
9091;BME280;4581;42.416;25.598;2024-02-21T07:10:38;99145.78;;;9.61;82.00
9091;BME280;4581;42.416;25.598;2024-02-21T07:13:05;99144.88;;;10.13;81.44
9091;BME280;4581;42.416;25.598;2024-02-21T07:15:32;99140.00;;;10.35;79.41
9091;BME280;4581;42.416;25.598;2024-02-21T07:17:59;99147.91;;;10.62;77.47
9091;BME280;4581;42.416;25.598;2024-02-21T07:20:26;99156.53;;;10.99;75.44
9091;BME280;4581;42.416;25.598;2024-02-21T07:22:53;99152.59;;;11.44;73.94
9091;BME280;4581;42.416;25.598;2024-02-21T07:25:20;99151.31;;;11.80;71.37
9091;BME280;4581;42.416;25.598;2024-02-21T07:27:46;99155.69;;;12.22;70.93
9091;BME280;4581;42.416;25.598;2024-02-21T07:30:13;99153.72;;;12.07;69.67
9091;BME280;4581;42.416;25.598;2024-02-21T07:32:43;99155.69;;;12.22;69.08
9091;BME280;4581;42.416;25.598;2024-02-21T07:35:10;99155.38;;;12.08;69.86
9091;BME280;4581;42.416;25.598;2024-02-21T07:37:38;99159.75;;;12.26;68.88
9091;BME280;4581;42.416;25.598;2024-02-21T07:40:11;99169.88;;;12.32;69.25
9091;BME280;4581;42.416;25.598;2024-02-21T07:42:38;99170.88;;;12.47;68.66
9091;BME280;4581;42.416;25.598;2024-02-21T07:45:06;99173.91;;;12.52;68.01
9091;BME280;4581;42.416;25.598;2024-02-21T07:47:33;99173.41;;;12.48;68.54
9091;BME280;4581;42.416;25.598;2024-02-21T07:50:00;99170.16;;;12.69;69.43
9091;BME280;4581;42.416;25.598;2024-02-21T07:52:26;99165.69;;;12.84;66.82
9091;BME280;4581;42.416;25.598;2024-02-21T07:54:53;99166.97;;;13.12;65.94
9091;BME280;4581;42.416;25.598;2024-02-21T07:57:20;99177.47;;;13.16;66.03
9091;BME280;4581;42.416;25.598;2024-02-21T07:59:47;99163.50;;;13.35;66.04
9091;BME280;4581;42.416;25.598;2024-02-21T08:02:16;99168.56;;;13.38;65.19
9091;BME280;4581;42.416;25.598;2024-02-21T08:04:43;99168.38;;;13.39;65.33
9091;BME280;4581;42.416;25.598;2024-02-21T08:07:10;99167.63;;;13.53;63.78
9091;BME280;4581;42.416;25.598;2024-02-21T08:09:39;99168.53;;;13.69;64.62
9091;BME280;4581;42.416;25.598;2024-02-21T08:12:06;99167.13;;;13.50;65.60
9091;BME280;4581;42.416;25.598;2024-02-21T08:14:33;99169.84;;;13.19;68.47
9091;BME280;4581;42.416;25.598;2024-02-21T08:17:00;99171.34;;;13.52;65.59
9091;BME280;4581;42.416;25.598;2024-02-21T08:19:27;99171.53;;;13.96;63.81
9091;BME280;4581;42.416;25.598;2024-02-21T08:21:53;99162.59;;;14.33;60.37
9091;BME280;4581;42.416;25.598;2024-02-21T08:24:21;99164.53;;;14.47;59.31
9091;BME280;4581;42.416;25.598;2024-02-21T08:26:49;99169.38;;;14.15;59.80
9091;BME280;4581;42.416;25.598;2024-02-21T08:29:16;99181.59;;;13.65;61.18
9091;BME280;4581;42.416;25.598;2024-02-21T08:31:42;99175.75;;;13.23;63.28
9091;BME280;4581;42.416;25.598;2024-02-21T08:34:09;99173.19;;;12.74;66.83
9091;BME280;4581;42.416;25.598;2024-02-21T08:36:36;99172.59;;;13.03;66.87
9091;BME280;4581;42.416;25.598;2024-02-21T08:39:03;99161.88;;;13.79;63.24
9091;BME280;4581;42.416;25.598;2024-02-21T08:41:32;99184.06;;;14.43;61.95
9091;BME280;4581;42.416;25.598;2024-02-21T08:44:17;99181.59;;;14.85;56.85
9091;BME280;4581;42.416;25.598;2024-02-21T08:46:44;99182.25;;;14.87;57.50
9091;BME280;4581;42.416;25.598;2024-02-21T08:49:11;99190.03;;;14.90;58.62
9091;BME280;4581;42.416;25.598;2024-02-21T08:51:37;99183.59;;;15.57;57.18
9091;BME280;4581;42.416;25.598;2024-02-21T08:54:04;99179.50;;;16.24;55.09
9091;BME280;4581;42.416;25.598;2024-02-21T08:56:31;99182.41;;;16.44;50.72
9091;BME280;4581;42.416;25.598;2024-02-21T08:58:59;99189.97;;;16.49;49.71
9091;BME280;4581;42.416;25.598;2024-02-21T09:01:26;99181.34;;;16.66;50.19
9091;BME280;4581;42.416;25.598;2024-02-21T09:03:53;99182.53;;;16.57;49.48
9091;BME280;4581;42.416;25.598;2024-02-21T09:06:20;99177.44;;;16.54;49.85
9091;BME280;4581;42.416;25.598;2024-02-21T09:08:48;99172.13;;;16.18;50.90
9091;BME280;4581;42.416;25.598;2024-02-21T09:11:15;99174.97;;;16.80;48.33
9091;BME280;4581;42.416;25.598;2024-02-21T09:13:42;99175.06;;;16.17;49.66
9091;BME280;4581;42.416;25.598;2024-02-21T09:16:08;99167.22;;;16.56;50.19
9091;BME280;4581;42.416;25.598;2024-02-21T09:18:35;99173.72;;;16.83;49.90
9091;BME280;4581;42.416;25.598;2024-02-21T09:21:02;99166.63;;;17.29;47.02
9091;BME280;4581;42.416;25.598;2024-02-21T09:23:29;99171.44;;;17.82;46.49
9091;BME280;4581;42.416;25.598;2024-02-21T09:25:58;99164.56;;;17.99;43.20
9091;BME280;4581;42.416;25.598;2024-02-21T09:28:27;99164.88;;;17.15;45.54
9091;BME280;4581;42.416;25.598;2024-02-21T09:30:54;99161.03;;;17.44;46.16
9091;BME280;4581;42.416;25.598;2024-02-21T09:33:21;99149.03;;;18.06;42.65
9091;BME280;4581;42.416;25.598;2024-02-21T09:35:58;99152.22;;;18.42;43.57
9091;BME280;4581;42.416;25.598;2024-02-21T09:38:24;99162.91;;;18.83;42.33
9091;BME280;4581;42.416;25.598;2024-02-21T09:41:18;99168.50;;;19.28;41.26
9091;BME280;4581;42.416;25.598;2024-02-21T09:43:51;99161.09;;;19.41;39.16
9091;BME280;4581;42.416;25.598;2024-02-21T09:46:35;99148.47;;;18.69;42.30
9091;BME280;4581;42.416;25.598;2024-02-21T09:51:43;99144.66;;;18.70;42.33
9091;BME280;4581;42.416;25.598;2024-02-21T09:54:11;99134.75;;;17.30;44.66
9091;BME280;4581;42.416;25.598;2024-02-21T09:56:45;99138.94;;;16.85;45.60
9091;BME280;4581;42.416;25.598;2024-02-21T09:59:14;99139.91;;;16.71;46.50
9091;BME280;4581;42.416;25.598;2024-02-21T10:01:45;99123.84;;;16.55;46.11
9091;BME280;4581;42.416;25.598;2024-02-21T10:04:14;99130.31;;;16.54;47.22
9091;BME280;4581;42.416;25.598;2024-02-21T10:06:41;99119.69;;;17.34;46.76
9091;BME280;4581;42.416;25.598;2024-02-21T10:09:08;99122.31;;;16.73;46.56
9091;BME280;4581;42.416;25.598;2024-02-21T10:11:34;99122.47;;;15.88;47.83
9091;BME280;4581;42.416;25.598;2024-02-21T10:14:11;99117.84;;;14.81;50.70
9091;BME280;4581;42.416;25.598;2024-02-21T10:16:38;99115.38;;;14.05;51.40
9091;BME280;4581;42.416;25.598;2024-02-21T10:19:05;99105.78;;;13.57;53.66
9091;BME280;4581;42.416;25.598;2024-02-21T10:21:32;99111.94;;;13.74;53.32
9091;BME280;4581;42.416;25.598;2024-02-21T10:23:58;99096.31;;;13.30;55.17
9091;BME280;4581;42.416;25.598;2024-02-21T10:26:25;99092.28;;;12.95;57.45
9091;BME280;4581;42.416;25.598;2024-02-21T10:28:52;99091.72;;;12.61;58.23
9091;BME280;4581;42.416;25.598;2024-02-21T10:31:22;99093.50;;;12.38;59.73
9091;BME280;4581;42.416;25.598;2024-02-21T10:36:21;99089.50;;;12.01;62.15
9091;BME280;4581;42.416;25.598;2024-02-21T10:38:48;99089.53;;;11.77;63.09
9091;BME280;4581;42.416;25.598;2024-02-21T10:41:15;99091.88;;;11.72;64.08
9091;BME280;4581;42.416;25.598;2024-02-21T10:43:49;99081.56;;;11.76;64.20
9091;BME280;4581;42.416;25.598;2024-02-21T10:46:19;99080.56;;;11.77;65.43
9091;BME280;4581;42.416;25.598;2024-02-21T10:48:47;99076.72;;;11.79;64.73
9091;BME280;4581;42.416;25.598;2024-02-21T10:51:18;99077.03;;;11.76;65.17
9091;BME280;4581;42.416;25.598;2024-02-21T10:56:29;99080.22;;;11.39;65.65
9091;BME280;4581;42.416;25.598;2024-02-21T10:58:58;99073.97;;;11.47;65.31
9091;BME280;4581;42.416;25.598;2024-02-21T11:01:25;99061.16;;;11.73;65.91
9091;BME280;4581;42.416;25.598;2024-02-21T11:03:55;99056.72;;;12.68;65.27
9091;BME280;4581;42.416;25.598;2024-02-21T11:06:24;99057.81;;;13.43;57.44
9091;BME280;4581;42.416;25.598;2024-02-21T11:09:06;99052.31;;;14.11;56.78
9091;BME280;4581;42.416;25.598;2024-02-21T11:11:34;99055.53;;;14.59;55.12
9091;BME280;4581;42.416;25.598;2024-02-21T11:14:20;99045.09;;;14.77;53.71
9091;BME280;4581;42.416;25.598;2024-02-21T11:16:47;99044.53;;;15.17;53.01
9091;BME280;4581;42.416;25.598;2024-02-21T11:19:26;99041.78;;;15.32;51.58
9091;BME280;4581;42.416;25.598;2024-02-21T11:21:56;99048.81;;;15.62;51.39
9091;BME280;4581;42.416;25.598;2024-02-21T11:24:33;99035.53;;;16.02;48.92
9091;BME280;4581;42.416;25.598;2024-02-21T11:27:19;99037.66;;;15.78;48.16
9091;BME280;4581;42.416;25.598;2024-02-21T11:29:57;99034.50;;;16.03;47.65
9091;BME280;4581;42.416;25.598;2024-02-21T11:32:26;99015.22;;;16.60;45.56
9091;BME280;4581;42.416;25.598;2024-02-21T11:34:58;99034.50;;;16.03;45.41
9091;BME280;4581;42.416;25.598;2024-02-21T11:37:31;99029.25;;;16.29;45.84
9091;BME280;4581;42.416;25.598;2024-02-21T11:40:00;99024.00;;;16.27;45.05
9091;BME280;4581;42.416;25.598;2024-02-21T11:42:27;99019.88;;;15.76;44.71
9091;BME280;4581;42.416;25.598;2024-02-21T11:44:59;99024.78;;;14.87;46.51
9091;BME280;4581;42.416;25.598;2024-02-21T11:47:28;99025.78;;;14.50;46.12
9091;BME280;4581;42.416;25.598;2024-02-21T11:49:55;99019.66;;;14.34;46.10
9091;BME280;4581;42.416;25.598;2024-02-21T11:52:24;99019.38;;;14.29;46.03
9091;BME280;4581;42.416;25.598;2024-02-21T11:54:53;99012.72;;;14.02;45.83
9091;BME280;4581;42.416;25.598;2024-02-21T11:57:21;99014.31;;;13.96;44.54
9091;BME280;4581;42.416;25.598;2024-02-21T11:59:48;99014.06;;;13.69;45.84
9091;BME280;4581;42.416;25.598;2024-02-21T12:02:19;99013.47;;;13.44;47.96
9091;BME280;4581;42.416;25.598;2024-02-21T12:04:46;99006.28;;;13.28;48.56
9091;BME280;4581;42.416;25.598;2024-02-21T12:07:14;99010.66;;;13.06;51.47
9091;BME280;4581;42.416;25.598;2024-02-21T12:09:41;99008.38;;;12.95;52.20
9091;BME280;4581;42.416;25.598;2024-02-21T12:12:08;99007.66;;;12.71;53.59
9091;BME280;4581;42.416;25.598;2024-02-21T12:14:35;99005.91;;;12.47;54.88
9091;BME280;4581;42.416;25.598;2024-02-21T12:17:02;99005.19;;;12.53;56.01
9091;BME280;4581;42.416;25.598;2024-02-21T12:19:33;98999.94;;;12.12;58.08
9091;BME280;4581;42.416;25.598;2024-02-21T12:22:00;99004.31;;;12.22;57.43
9091;BME280;4581;42.416;25.598;2024-02-21T12:24:28;99001.66;;;12.13;56.77
9091;BME280;4581;42.416;25.598;2024-02-21T12:26:56;98997.13;;;11.98;59.48
9091;BME280;4581;42.416;25.598;2024-02-21T12:29:24;98986.47;;;12.04;60.79
9091;BME280;4581;42.416;25.598;2024-02-21T12:31:55;98996.97;;;11.99;61.82
9091;BME280;4581;42.416;25.598;2024-02-21T12:34:23;98982.63;;;11.99;59.15
9091;BME280;4581;42.416;25.598;2024-02-21T12:37:04;98990.47;;;12.16;57.61
9091;BME280;4581;42.416;25.598;2024-02-21T12:39:31;98987.41;;;12.28;57.59
9091;BME280;4581;42.416;25.598;2024-02-21T12:41:59;98989.00;;;12.45;56.56
9091;BME280;4581;42.416;25.598;2024-02-21T12:44:26;98990.00;;;12.52;56.76
9091;BME280;4581;42.416;25.598;2024-02-21T12:46:53;98985.13;;;12.47;55.79
9091;BME280;4581;42.416;25.598;2024-02-21T12:49:20;98987.47;;;12.50;55.71
9091;BME280;4581;42.416;25.598;2024-02-21T12:51:47;98984.44;;;12.45;54.83
9091;BME280;4581;42.416;25.598;2024-02-21T12:54:15;98986.78;;;12.48;52.92
9091;BME280;4581;42.416;25.598;2024-02-21T12:56:41;98971.94;;;12.44;52.88
9091;BME280;4581;42.416;25.598;2024-02-21T12:59:08;98978.03;;;12.46;54.40
9091;BME280;4581;42.416;25.598;2024-02-21T13:01:38;98981.41;;;12.40;53.36
9091;BME280;4581;42.416;25.598;2024-02-21T13:04:05;98975.84;;;12.42;54.29
9091;BME280;4581;42.416;25.598;2024-02-21T13:06:32;98982.63;;;12.38;53.24
9091;BME280;4581;42.416;25.598;2024-02-21T13:08:59;98972.66;;;12.38;52.84
9091;BME280;4581;42.416;25.598;2024-02-21T13:11:31;98974.97;;;12.49;52.08
9091;BME280;4581;42.416;25.598;2024-02-21T13:13:58;98974.06;;;12.57;52.08
9091;BME280;4581;42.416;25.598;2024-02-21T13:16:26;98976.56;;;12.66;51.76
9091;BME280;4581;42.416;25.598;2024-02-21T13:18:53;98969.78;;;12.71;50.42
9091;BME280;4581;42.416;25.598;2024-02-21T13:21:20;98968.91;;;12.47;51.88
9091;BME280;4581;42.416;25.598;2024-02-21T13:23:47;98968.72;;;12.49;51.67
9091;BME280;4581;42.416;25.598;2024-02-21T13:26:14;98973.97;;;12.50;51.62